createdAt,value
2017-12-28T00:00:01.066Z,977.73
2017-12-28T00:01:00.975Z,977.70
2017-12-28T00:02:00.884Z,977.67
2017-12-28T00:03:00.787Z,977.66
2017-12-28T00:04:00.702Z,977.63
2017-12-28T00:05:00.649Z,977.66
2017-12-28T00:06:00.520Z,977.62
2017-12-28T00:07:00.434Z,977.69
2017-12-28T00:08:00.396Z,977.64
2017-12-28T00:09:00.256Z,977.68
2017-12-28T00:10:00.163Z,977.63
2017-12-28T00:11:00.077Z,977.69
2017-12-28T00:12:00.017Z,977.71
2017-12-28T00:12:59.900Z,977.71
2017-12-28T00:13:59.809Z,977.72
2017-12-28T00:14:59.717Z,977.76
2017-12-28T00:15:59.634Z,977.77
2017-12-28T00:16:59.535Z,977.78
2017-12-28T00:17:59.443Z,977.75
2017-12-28T00:18:59.352Z,977.76
2017-12-28T00:19:59.263Z,977.78
2017-12-28T00:20:59.176Z,977.78
2017-12-28T00:21:59.107Z,977.78
2017-12-28T00:22:59.003Z,977.80
2017-12-28T00:23:58.909Z,977.87
2017-12-28T00:24:58.830Z,977.79
2017-12-28T00:25:58.724Z,977.82
2017-12-28T00:26:58.634Z,977.84
2017-12-28T00:27:58.546Z,977.83
2017-12-28T00:28:58.465Z,977.81
2017-12-28T00:29:58.379Z,977.81
2017-12-28T00:30:58.283Z,977.83
2017-12-28T00:31:58.189Z,977.86
2017-12-28T00:32:58.107Z,977.95
2017-12-28T00:33:58.037Z,977.99
2017-12-28T00:34:57.927Z,977.96
2017-12-28T00:35:57.834Z,977.96
2017-12-28T00:36:57.741Z,977.96
2017-12-28T00:37:57.661Z,977.98
2017-12-28T00:38:57.568Z,978.05
2017-12-28T00:39:57.477Z,978.03
2017-12-28T00:40:57.383Z,978.06
2017-12-28T00:41:57.294Z,978.10
2017-12-28T00:42:57.201Z,978.07
2017-12-28T00:43:57.114Z,978.09
2017-12-28T00:44:57.022Z,978.09
2017-12-28T00:45:56.932Z,978.10
2017-12-28T00:46:56.844Z,978.06
2017-12-28T00:47:56.753Z,978.11
2017-12-28T00:48:56.678Z,978.12
2017-12-28T00:49:56.584Z,978.10
2017-12-28T00:50:56.486Z,978.08
2017-12-28T00:51:56.397Z,978.15
2017-12-28T00:52:56.324Z,978.12
2017-12-28T00:53:56.228Z,978.16
2017-12-28T00:54:56.146Z,978.15
2017-12-28T00:55:56.046Z,978.18
2017-12-28T00:56:55.951Z,978.18
2017-12-28T00:57:55.864Z,978.18
2017-12-28T00:58:55.776Z,978.25
2017-12-28T00:59:55.683Z,978.27
2017-12-28T01:00:55.593Z,978.29
2017-12-28T01:01:55.501Z,978.26
2017-12-28T01:02:55.431Z,978.31
2017-12-28T01:03:55.322Z,978.35
2017-12-28T01:04:55.233Z,978.34
2017-12-28T01:05:55.136Z,978.35
2017-12-28T01:06:55.050Z,978.32
2017-12-28T01:07:54.959Z,978.34
2017-12-28T01:08:54.870Z,978.37
2017-12-28T01:09:54.778Z,978.38
2017-12-28T01:10:54.704Z,978.35
2017-12-28T01:11:54.610Z,978.35
2017-12-28T01:12:54.518Z,978.39
2017-12-28T01:13:54.429Z,978.42
2017-12-28T01:14:54.341Z,978.37
2017-12-28T01:15:54.358Z,978.44
2017-12-28T01:16:54.155Z,978.46
2017-12-28T01:17:54.063Z,978.46
2017-12-28T01:18:53.976Z,978.50
2017-12-28T01:19:53.885Z,978.46
2017-12-28T01:20:53.802Z,978.62
2017-12-28T01:21:53.713Z,978.49
2017-12-28T01:22:53.627Z,978.53
2017-12-28T01:23:53.552Z,978.50
2017-12-28T01:24:53.451Z,978.46
2017-12-28T01:25:53.343Z,978.49
2017-12-28T01:26:53.263Z,978.59
2017-12-28T01:27:53.167Z,978.54
2017-12-28T01:28:53.080Z,978.65
2017-12-28T01:29:52.990Z,978.64
2017-12-28T01:30:52.896Z,978.68
2017-12-28T01:31:52.814Z,978.69
2017-12-28T01:32:52.714Z,978.67
2017-12-28T01:33:52.633Z,978.63
2017-12-28T01:34:52.537Z,978.59
2017-12-28T01:35:52.448Z,978.70
2017-12-28T01:36:52.353Z,978.67
2017-12-28T01:37:52.268Z,978.70
2017-12-28T01:38:52.178Z,978.73
2017-12-28T01:39:52.084Z,978.78
2017-12-28T01:40:51.995Z,978.74
2017-12-28T01:41:51.906Z,978.76
2017-12-28T01:42:51.819Z,978.77
2017-12-28T01:43:51.756Z,978.72
2017-12-28T01:44:51.637Z,978.73
2017-12-28T01:45:51.547Z,978.77
2017-12-28T01:46:51.454Z,978.73
2017-12-28T01:47:51.365Z,978.83
2017-12-28T01:48:51.277Z,978.79
2017-12-28T01:49:51.189Z,978.77
2017-12-28T01:50:51.093Z,978.84
2017-12-28T01:51:51.005Z,978.86
2017-12-28T01:52:50.930Z,978.87
2017-12-28T01:53:50.830Z,978.83
2017-12-28T01:54:50.745Z,978.86
2017-12-28T01:55:50.652Z,978.91
2017-12-28T01:56:50.557Z,978.91
2017-12-28T01:57:50.477Z,978.92
2017-12-28T01:58:50.378Z,978.89
2017-12-28T01:59:50.289Z,978.96
2017-12-28T02:00:50.222Z,978.90
2017-12-28T02:01:50.112Z,978.97
2017-12-28T02:02:50.020Z,978.93
2017-12-28T02:03:49.931Z,978.94
2017-12-28T02:04:49.834Z,978.96
2017-12-28T02:05:49.746Z,978.94
2017-12-28T02:06:49.654Z,978.92
2017-12-28T02:07:49.566Z,978.93
2017-12-28T02:08:49.477Z,978.93
2017-12-28T02:09:49.396Z,978.99
2017-12-28T02:10:49.292Z,978.95
2017-12-28T02:11:49.208Z,979.03
2017-12-28T02:12:49.119Z,979.00
2017-12-28T02:13:49.036Z,979.02
2017-12-28T02:14:48.932Z,979.06
2017-12-28T02:15:48.865Z,979.04
2017-12-28T02:16:48.757Z,979.07
2017-12-28T02:17:48.665Z,979.10
2017-12-28T02:18:48.573Z,979.06
2017-12-28T02:19:48.488Z,979.06
2017-12-28T02:20:48.402Z,979.06
2017-12-28T02:21:48.310Z,979.07
2017-12-28T02:22:48.223Z,979.06
2017-12-28T02:23:48.128Z,979.08
2017-12-28T02:24:48.035Z,979.05
2017-12-28T02:25:47.937Z,979.07
2017-12-28T02:26:47.853Z,979.09
2017-12-28T02:27:47.764Z,979.09
2017-12-28T02:28:47.675Z,979.08
2017-12-28T02:29:47.582Z,979.06
2017-12-28T02:30:47.495Z,979.06
2017-12-28T02:31:47.403Z,979.10
2017-12-28T02:32:47.307Z,979.12
2017-12-28T02:33:47.240Z,979.13
2017-12-28T02:34:47.131Z,979.11
2017-12-28T02:35:47.049Z,979.12
2017-12-28T02:36:46.953Z,979.17
2017-12-28T02:37:46.857Z,979.19
2017-12-28T02:38:46.764Z,979.18
2017-12-28T02:39:46.681Z,979.22
2017-12-28T02:40:46.599Z,979.25
2017-12-28T02:41:46.495Z,979.20
2017-12-28T02:42:46.406Z,979.31
2017-12-28T02:43:46.310Z,979.27
2017-12-28T02:44:46.222Z,979.18
2017-12-28T02:45:46.135Z,979.30
2017-12-28T02:46:46.041Z,979.25
2017-12-28T02:47:45.947Z,979.25
2017-12-28T02:48:45.858Z,979.28
2017-12-28T02:49:45.768Z,979.33
2017-12-28T02:50:45.681Z,979.33
2017-12-28T02:51:45.586Z,979.33
2017-12-28T02:52:45.496Z,979.37
2017-12-28T02:53:45.422Z,979.42
2017-12-28T02:54:45.325Z,979.49
2017-12-28T02:55:45.261Z,979.48
2017-12-28T02:56:45.151Z,979.49
2017-12-28T02:57:45.056Z,979.53
2017-12-28T02:58:44.956Z,979.55
2017-12-28T02:59:44.866Z,979.52
2017-12-28T03:00:44.796Z,979.56
2017-12-28T03:01:44.686Z,979.54
2017-12-28T03:02:44.632Z,979.63
2017-12-28T03:03:44.507Z,979.66
2017-12-28T03:04:44.419Z,979.66
2017-12-28T03:05:44.331Z,979.59
2017-12-28T03:06:44.229Z,979.66
2017-12-28T03:07:44.143Z,979.68
2017-12-28T03:08:44.061Z,979.64
2017-12-28T03:09:43.998Z,979.69
2017-12-28T03:10:43.872Z,979.66
2017-12-28T03:11:43.783Z,979.73
2017-12-28T03:12:43.689Z,979.74
2017-12-28T03:13:43.601Z,979.79
2017-12-28T03:14:43.528Z,979.82
2017-12-28T03:15:43.420Z,979.83
2017-12-28T03:16:43.326Z,979.84
2017-12-28T03:17:43.237Z,979.81
2017-12-28T03:18:43.147Z,979.86
2017-12-28T03:19:43.060Z,979.86
2017-12-28T03:20:42.970Z,979.89
2017-12-28T03:21:42.880Z,979.96
2017-12-28T03:22:42.800Z,979.97
2017-12-28T03:23:42.708Z,979.95
2017-12-28T03:24:42.613Z,979.96
2017-12-28T03:25:42.531Z,979.97
2017-12-28T03:26:42.430Z,979.94
2017-12-28T03:27:42.349Z,980.00
2017-12-28T03:28:42.278Z,980.01
2017-12-28T03:29:42.156Z,980.02
2017-12-28T03:30:42.079Z,980.03
2017-12-28T03:31:41.977Z,980.05
2017-12-28T03:32:41.887Z,980.06
2017-12-28T03:33:41.803Z,980.06
2017-12-28T03:34:41.707Z,980.06
2017-12-28T03:35:41.628Z,980.08
2017-12-28T03:36:41.530Z,980.16
2017-12-28T03:37:41.442Z,980.17
2017-12-28T03:38:41.352Z,980.17
2017-12-28T03:39:41.265Z,980.17
2017-12-28T03:40:41.178Z,980.18
2017-12-28T03:41:41.083Z,980.18
2017-12-28T03:42:40.990Z,980.24
2017-12-28T03:43:40.903Z,980.25
2017-12-28T03:44:40.813Z,980.24
2017-12-28T03:45:40.727Z,980.29
2017-12-28T03:46:40.658Z,980.33
2017-12-28T03:47:40.544Z,980.33
2017-12-28T03:48:40.457Z,980.39
2017-12-28T03:49:40.380Z,980.47
2017-12-28T03:50:40.291Z,980.49
2017-12-28T03:51:40.202Z,980.51
2017-12-28T03:52:40.103Z,980.51
2017-12-28T03:53:40.009Z,980.54
2017-12-28T03:54:39.923Z,980.55
2017-12-28T03:55:39.833Z,980.60
2017-12-28T03:56:39.746Z,980.55
2017-12-28T03:57:39.650Z,980.58
2017-12-28T03:58:39.570Z,980.60
2017-12-28T03:59:39.475Z,980.65
2017-12-28T04:00:39.388Z,980.67
2017-12-28T04:01:39.296Z,980.66
2017-12-28T04:02:39.437Z,980.66
2017-12-28T04:03:39.117Z,980.65
2017-12-28T04:04:39.046Z,980.70
2017-12-28T04:05:38.937Z,980.70
2017-12-28T04:06:38.856Z,980.77
2017-12-28T04:07:38.765Z,980.80
2017-12-28T04:08:38.668Z,980.82
2017-12-28T04:09:38.577Z,980.84
2017-12-28T04:10:38.495Z,980.90
2017-12-28T04:11:38.404Z,980.88
2017-12-28T04:12:38.309Z,980.93
2017-12-28T04:13:38.221Z,980.95
2017-12-28T04:14:38.138Z,980.93
2017-12-28T04:15:38.054Z,980.96
2017-12-28T04:16:37.957Z,980.95
2017-12-28T04:17:37.865Z,980.99
2017-12-28T04:18:37.777Z,981.02
2017-12-28T04:19:37.692Z,981.01
2017-12-28T04:20:37.599Z,981.03
2017-12-28T04:21:37.515Z,981.07
2017-12-28T04:22:37.429Z,981.08
2017-12-28T04:23:37.332Z,981.11
2017-12-28T04:24:37.247Z,981.14
2017-12-28T04:25:37.152Z,981.12
2017-12-28T04:26:37.064Z,981.15
2017-12-28T04:27:36.976Z,981.13
2017-12-28T04:28:36.889Z,981.20
2017-12-28T04:29:36.802Z,981.18
2017-12-28T04:30:36.719Z,981.20
2017-12-28T04:31:36.665Z,981.25
2017-12-28T04:32:36.534Z,981.31
2017-12-28T04:33:36.444Z,981.34
2017-12-28T04:34:36.356Z,981.34
2017-12-28T04:35:36.264Z,981.37
2017-12-28T04:36:36.183Z,981.42
2017-12-28T04:37:36.099Z,981.43
2017-12-28T04:38:36.090Z,981.45
2017-12-28T04:39:35.924Z,981.49
2017-12-28T04:40:35.821Z,981.46
2017-12-28T04:41:35.736Z,981.48
2017-12-28T04:42:35.642Z,981.54
2017-12-28T04:43:35.563Z,981.50
2017-12-28T04:44:35.478Z,981.54
2017-12-28T04:45:35.409Z,981.60
2017-12-28T04:46:35.302Z,981.65
2017-12-28T04:47:35.206Z,981.59
2017-12-28T04:48:35.118Z,981.67
2017-12-28T04:49:35.024Z,981.63
2017-12-28T04:50:34.930Z,981.69
2017-12-28T04:51:34.860Z,981.73
2017-12-28T04:52:34.763Z,981.74
2017-12-28T04:53:34.668Z,981.79
2017-12-28T04:54:34.579Z,981.77
2017-12-28T04:55:34.491Z,981.83
2017-12-28T04:56:34.403Z,981.84
2017-12-28T04:57:34.319Z,981.86
2017-12-28T04:58:34.222Z,981.85
2017-12-28T04:59:34.141Z,981.89
2017-12-28T05:00:34.048Z,981.92
2017-12-28T05:01:33.956Z,981.95
2017-12-28T05:02:33.879Z,981.96
2017-12-28T05:03:33.788Z,981.97
2017-12-28T05:04:33.691Z,981.96
2017-12-28T05:05:33.604Z,981.98
2017-12-28T05:06:33.522Z,982.03
2017-12-28T05:07:33.438Z,982.08
2017-12-28T05:08:33.338Z,982.14
2017-12-28T05:09:33.257Z,982.14
2017-12-28T05:10:33.161Z,982.18
2017-12-28T05:11:33.077Z,982.19
2017-12-28T05:12:32.988Z,982.19
2017-12-28T05:13:32.902Z,982.27
2017-12-28T05:14:32.812Z,982.25
2017-12-28T05:15:32.735Z,982.27
2017-12-28T05:16:32.634Z,982.32
2017-12-28T05:17:32.552Z,982.32
2017-12-28T05:18:32.467Z,982.37
2017-12-28T05:19:32.371Z,982.41
2017-12-28T05:20:32.286Z,982.42
2017-12-28T05:21:32.194Z,982.44
2017-12-28T05:22:32.115Z,982.43
2017-12-28T05:23:32.023Z,982.45
2017-12-28T05:24:31.935Z,982.49
2017-12-28T05:25:31.850Z,982.50
2017-12-28T05:26:31.762Z,982.52
2017-12-28T05:27:31.669Z,982.54
2017-12-28T05:28:31.587Z,982.60
2017-12-28T05:29:31.500Z,982.54
2017-12-28T05:30:31.407Z,982.61
2017-12-28T05:31:31.320Z,982.66
2017-12-28T05:32:31.243Z,982.70
2017-12-28T05:33:31.145Z,982.68
2017-12-28T05:34:31.053Z,982.71
2017-12-28T05:35:30.973Z,982.70
2017-12-28T05:36:30.877Z,982.75
2017-12-28T05:37:30.785Z,982.77
2017-12-28T05:38:30.702Z,982.78
2017-12-28T05:39:30.612Z,982.79
2017-12-28T05:40:30.531Z,982.83
2017-12-28T05:41:30.433Z,982.90
2017-12-28T05:42:30.347Z,982.88
2017-12-28T05:43:30.265Z,982.94
2017-12-28T05:44:30.184Z,982.91
2017-12-28T05:45:30.086Z,982.91
2017-12-28T05:46:30.000Z,982.88
2017-12-28T05:47:29.907Z,982.94
2017-12-28T05:48:29.822Z,982.99
2017-12-28T05:49:29.730Z,982.97
2017-12-28T05:50:29.654Z,982.96
2017-12-28T05:51:29.559Z,983.01
2017-12-28T05:52:29.466Z,983.02
2017-12-28T05:53:29.377Z,983.02
2017-12-28T05:54:29.294Z,983.06
2017-12-28T05:55:29.228Z,983.10
2017-12-28T05:56:29.119Z,983.08
2017-12-28T05:57:29.030Z,983.15
2017-12-28T05:58:28.938Z,983.15
2017-12-28T05:59:28.850Z,983.17
2017-12-28T06:00:28.762Z,983.24
2017-12-28T06:01:28.676Z,983.26
2017-12-28T06:02:28.602Z,983.26
2017-12-28T06:03:28.506Z,983.28
2017-12-28T06:04:28.413Z,983.30
2017-12-28T06:05:28.321Z,983.32
2017-12-28T06:06:28.236Z,983.29
2017-12-28T06:07:28.156Z,983.35
2017-12-28T06:08:28.059Z,983.39
2017-12-28T06:09:27.968Z,983.38
2017-12-28T06:10:27.886Z,983.47
2017-12-28T06:11:27.793Z,983.46
2017-12-28T06:12:27.707Z,983.47
2017-12-28T06:13:27.619Z,983.48
2017-12-28T06:14:27.532Z,983.50
2017-12-28T06:15:27.443Z,983.56
2017-12-28T06:16:27.363Z,983.60
2017-12-28T06:17:27.276Z,983.58
2017-12-28T06:18:27.184Z,983.56
2017-12-28T06:19:27.104Z,983.60
2017-12-28T06:20:27.019Z,983.67
2017-12-28T06:21:26.914Z,983.71
2017-12-28T06:22:26.830Z,983.73
2017-12-28T06:23:26.744Z,983.78
2017-12-28T06:24:26.649Z,983.81
2017-12-28T06:25:26.564Z,983.83
2017-12-28T06:26:26.475Z,983.85
2017-12-28T06:27:26.396Z,983.89
2017-12-28T06:28:26.305Z,983.88
2017-12-28T06:29:26.220Z,983.87
2017-12-28T06:30:26.127Z,983.89
2017-12-28T06:31:26.036Z,983.89
2017-12-28T06:32:25.946Z,983.93
2017-12-28T06:33:25.890Z,983.93
2017-12-28T06:34:25.770Z,983.95
2017-12-28T06:35:25.687Z,983.90
2017-12-28T06:36:25.594Z,983.93
2017-12-28T06:37:25.507Z,983.95
2017-12-28T06:38:25.425Z,984.01
2017-12-28T06:39:25.333Z,984.04
2017-12-28T06:40:25.266Z,984.07
2017-12-28T06:41:25.155Z,984.07
2017-12-28T06:42:25.069Z,984.10
2017-12-28T06:43:24.985Z,984.09
2017-12-28T06:44:24.898Z,984.14
2017-12-28T06:45:24.804Z,984.14
2017-12-28T06:46:24.718Z,984.18
2017-12-28T06:47:24.627Z,984.20
2017-12-28T06:48:24.575Z,984.21
2017-12-28T06:49:24.461Z,984.22
2017-12-28T06:50:24.358Z,984.23
2017-12-28T06:51:24.280Z,984.20
2017-12-28T06:52:24.185Z,984.24
2017-12-28T06:53:24.094Z,984.25
2017-12-28T06:54:24.006Z,984.24
2017-12-28T06:55:23.966Z,984.25
2017-12-28T06:56:23.847Z,984.25
2017-12-28T06:57:23.758Z,984.26
2017-12-28T06:58:23.658Z,984.28
2017-12-28T06:59:23.568Z,984.28
2017-12-28T07:00:23.562Z,984.31
2017-12-28T07:01:23.392Z,984.34
2017-12-28T07:02:23.304Z,984.42
2017-12-28T07:03:23.211Z,984.45
2017-12-28T07:04:23.124Z,984.49
2017-12-28T07:05:23.036Z,984.56
2017-12-28T07:06:22.947Z,984.53
2017-12-28T07:07:22.860Z,984.55
2017-12-28T07:08:22.780Z,984.57
2017-12-28T07:09:22.704Z,984.62
2017-12-28T07:10:22.600Z,984.65
2017-12-28T07:11:22.513Z,984.66
2017-12-28T07:12:22.417Z,984.66
2017-12-28T07:13:22.324Z,984.73
2017-12-28T07:14:22.337Z,984.70
2017-12-28T07:15:22.156Z,984.76
2017-12-28T07:16:22.095Z,984.75
2017-12-28T07:17:21.972Z,984.81
2017-12-28T07:18:21.888Z,984.84
2017-12-28T07:19:21.800Z,984.87
2017-12-28T07:20:21.708Z,984.86
2017-12-28T07:21:21.619Z,984.88
2017-12-28T07:22:21.550Z,984.90
2017-12-28T07:23:21.448Z,984.91
2017-12-28T07:24:21.378Z,984.94
2017-12-28T07:25:21.265Z,984.91
2017-12-28T07:26:21.178Z,984.94
2017-12-28T07:27:21.088Z,984.99
2017-12-28T07:28:21.007Z,984.98
2017-12-28T07:29:20.915Z,985.01
2017-12-28T07:30:20.877Z,984.99
2017-12-28T07:31:20.738Z,985.05
2017-12-28T07:32:20.653Z,985.07
2017-12-28T07:33:20.560Z,985.09
2017-12-28T07:34:20.471Z,985.11
2017-12-28T07:35:20.384Z,985.12
2017-12-28T07:36:20.310Z,985.20
2017-12-28T07:37:20.228Z,985.22
2017-12-28T07:38:20.124Z,985.19
2017-12-28T07:39:20.038Z,985.24
2017-12-28T07:40:19.954Z,985.24
2017-12-28T07:41:19.853Z,985.25
2017-12-28T07:42:19.759Z,985.27
2017-12-28T07:43:19.681Z,985.33
2017-12-28T07:44:19.585Z,985.36
2017-12-28T07:45:19.499Z,985.37
2017-12-28T07:46:19.413Z,985.38
2017-12-28T07:47:19.321Z,985.39
2017-12-28T07:48:19.231Z,985.39
2017-12-28T07:49:19.162Z,985.41
2017-12-28T07:50:19.059Z,985.47
2017-12-28T07:51:18.985Z,985.42
2017-12-28T07:52:18.875Z,985.47
2017-12-28T07:53:18.783Z,985.47
2017-12-28T07:54:18.696Z,985.52
2017-12-28T07:55:18.605Z,985.54
2017-12-28T07:56:18.526Z,985.56
2017-12-28T07:57:18.442Z,985.58
2017-12-28T07:58:18.347Z,985.56
2017-12-28T07:59:18.254Z,985.63
2017-12-28T08:00:18.166Z,985.59
2017-12-28T08:01:18.076Z,985.63
2017-12-28T08:02:17.985Z,985.64
2017-12-28T08:03:17.898Z,985.66
2017-12-28T08:04:17.809Z,985.70
2017-12-28T08:05:17.718Z,985.70
2017-12-28T08:06:17.635Z,985.72
2017-12-28T08:07:17.543Z,985.71
2017-12-28T08:08:17.458Z,985.75
2017-12-28T08:09:17.361Z,985.74
2017-12-28T08:10:17.281Z,985.78
2017-12-28T08:11:17.187Z,985.75
2017-12-28T08:12:17.109Z,985.78
2017-12-28T08:13:17.011Z,985.82
2017-12-28T08:14:16.923Z,985.85
2017-12-28T08:15:16.837Z,985.88
2017-12-28T08:16:16.746Z,985.88
2017-12-28T08:17:16.652Z,985.88
2017-12-28T08:18:16.568Z,985.93
2017-12-28T08:19:16.481Z,985.90
2017-12-28T08:20:16.391Z,985.92
2017-12-28T08:21:16.296Z,985.97
2017-12-28T08:22:16.221Z,985.97
2017-12-28T08:23:16.122Z,985.99
2017-12-28T08:24:16.033Z,986.03
2017-12-28T08:25:15.940Z,986.07
2017-12-28T08:26:15.857Z,986.08
2017-12-28T08:27:15.773Z,986.07
2017-12-28T08:28:15.679Z,986.14
2017-12-28T08:29:15.593Z,986.12
2017-12-28T08:30:15.495Z,986.16
2017-12-28T08:31:15.411Z,986.17
2017-12-28T08:32:15.322Z,986.23
2017-12-28T08:33:15.231Z,986.24
2017-12-28T08:34:15.148Z,986.25
2017-12-28T08:35:15.058Z,986.30
2017-12-28T08:36:14.967Z,986.31
2017-12-28T08:37:14.878Z,986.34
2017-12-28T08:38:14.789Z,986.32
2017-12-28T08:39:14.701Z,986.35
2017-12-28T08:40:14.613Z,986.37
2017-12-28T08:41:14.521Z,986.39
2017-12-28T08:42:14.439Z,986.43
2017-12-28T08:43:14.345Z,986.41
2017-12-28T08:44:14.258Z,986.43
2017-12-28T08:45:14.163Z,986.46
2017-12-28T08:46:14.072Z,986.43
2017-12-28T08:47:13.988Z,986.44
2017-12-28T08:48:13.904Z,986.44
2017-12-28T08:49:13.812Z,986.47
2017-12-28T08:50:13.729Z,986.49
2017-12-28T08:51:13.636Z,986.50
2017-12-28T08:52:13.540Z,986.53
2017-12-28T08:53:13.468Z,986.53
2017-12-28T08:54:13.363Z,986.57
2017-12-28T08:55:13.271Z,986.59
2017-12-28T08:56:13.188Z,986.64
2017-12-28T08:57:13.093Z,986.69
2017-12-28T08:58:13.005Z,986.71
2017-12-28T08:59:12.920Z,986.73
2017-12-28T09:00:12.836Z,986.75
2017-12-28T09:01:12.750Z,986.75
2017-12-28T09:02:12.654Z,986.79
2017-12-28T09:03:12.572Z,986.81
2017-12-28T09:04:12.475Z,986.84
2017-12-28T09:05:12.389Z,986.87
2017-12-28T09:06:12.293Z,986.92
2017-12-28T09:07:12.202Z,986.90
2017-12-28T09:08:12.112Z,986.88
2017-12-28T09:09:12.031Z,986.89
2017-12-28T09:10:11.935Z,986.98
2017-12-28T09:11:11.852Z,987.03
2017-12-28T09:12:11.755Z,987.06
2017-12-28T09:13:11.669Z,987.12
2017-12-28T09:14:11.578Z,987.16
2017-12-28T09:15:11.488Z,987.19
2017-12-28T09:16:11.399Z,987.18
2017-12-28T09:17:11.309Z,987.20
2017-12-28T09:18:11.220Z,987.26
2017-12-28T09:19:11.135Z,987.20
2017-12-28T09:20:11.048Z,987.24
2017-12-28T09:21:10.961Z,987.28
2017-12-28T09:22:10.864Z,987.30
2017-12-28T09:23:10.779Z,987.34
2017-12-28T09:24:10.695Z,987.31
2017-12-28T09:25:10.602Z,987.40
2017-12-28T09:26:10.512Z,987.41
2017-12-28T09:27:10.430Z,987.44
2017-12-28T09:28:10.340Z,987.47
2017-12-28T09:29:10.250Z,987.45
2017-12-28T09:30:10.155Z,987.52
2017-12-28T09:31:10.074Z,987.55
2017-12-28T09:32:09.978Z,987.56
2017-12-28T09:33:09.932Z,987.55
2017-12-28T09:34:09.846Z,987.56
2017-12-28T09:35:09.724Z,987.54
2017-12-28T09:36:09.643Z,987.56
2017-12-28T09:37:09.542Z,987.55
2017-12-28T09:38:09.449Z,987.56
2017-12-28T09:39:09.356Z,987.53
2017-12-28T09:40:09.271Z,987.49
2017-12-28T09:41:09.178Z,987.58
2017-12-28T09:42:09.097Z,987.50
2017-12-28T09:43:09.007Z,987.55
2017-12-28T09:44:08.918Z,987.56
2017-12-28T09:45:08.825Z,987.57
2017-12-28T09:46:08.733Z,987.62
2017-12-28T09:47:08.641Z,987.61
2017-12-28T09:48:08.560Z,987.62
2017-12-28T09:49:08.469Z,987.68
2017-12-28T09:50:08.379Z,987.66
2017-12-28T09:51:08.286Z,987.66
2017-12-28T09:52:08.199Z,987.71
2017-12-28T09:53:08.106Z,987.64
2017-12-28T09:54:08.021Z,987.64
2017-12-28T09:55:07.990Z,987.64
2017-12-28T09:56:07.863Z,987.73
2017-12-28T09:57:07.744Z,987.65
2017-12-28T09:58:07.660Z,987.70
2017-12-28T09:59:07.573Z,987.77
2017-12-28T10:00:07.477Z,987.75
2017-12-28T10:01:07.386Z,987.71
2017-12-28T10:02:07.299Z,987.73
2017-12-28T10:03:07.217Z,987.74
2017-12-28T10:04:07.116Z,987.76
2017-12-28T10:05:07.043Z,987.76
2017-12-28T10:06:06.935Z,987.73
2017-12-28T10:07:06.926Z,987.77
2017-12-28T10:08:06.757Z,987.76
2017-12-28T10:09:06.666Z,987.80
2017-12-28T10:10:06.577Z,987.74
2017-12-28T10:11:06.480Z,987.78
2017-12-28T10:12:06.397Z,987.78
2017-12-28T10:13:06.298Z,987.82
2017-12-28T10:14:06.232Z,987.77
2017-12-28T10:15:06.126Z,987.80
2017-12-28T10:16:06.030Z,987.86
2017-12-28T10:17:05.943Z,987.85
2017-12-28T10:18:05.853Z,987.87
2017-12-28T10:19:05.757Z,987.87
2017-12-28T10:20:05.672Z,987.85
2017-12-28T10:21:05.579Z,987.87
2017-12-28T10:22:05.493Z,987.93
2017-12-28T10:23:05.395Z,987.96
2017-12-28T10:24:05.319Z,987.99
2017-12-28T10:25:05.215Z,987.96
2017-12-28T10:26:05.130Z,987.94
2017-12-28T10:27:05.034Z,987.87
2017-12-28T10:28:04.945Z,987.88
2017-12-28T10:29:04.861Z,987.89
2017-12-28T10:30:04.771Z,987.84
2017-12-28T10:31:04.679Z,987.89
2017-12-28T10:32:04.579Z,987.92
2017-12-28T10:33:04.490Z,987.90
2017-12-28T10:34:04.398Z,987.88
2017-12-28T10:35:04.317Z,987.96
2017-12-28T10:36:04.218Z,987.88
2017-12-28T10:37:04.121Z,987.91
2017-12-28T10:38:04.046Z,987.94
2017-12-28T10:39:03.953Z,987.97
2017-12-28T10:40:03.850Z,987.99
2017-12-28T10:41:03.761Z,988.00
2017-12-28T10:42:03.697Z,988.00
2017-12-28T10:43:03.624Z,988.02
2017-12-28T10:44:03.489Z,988.09
2017-12-28T10:45:03.409Z,988.07
2017-12-28T10:46:03.317Z,988.11
2017-12-28T10:47:03.221Z,988.08
2017-12-28T10:48:03.129Z,988.13
2017-12-28T10:49:03.038Z,988.11
2017-12-28T10:50:03.037Z,988.21
2017-12-28T10:51:02.858Z,988.19
2017-12-28T10:52:02.769Z,988.17
2017-12-28T10:53:02.675Z,988.17
2017-12-28T10:54:02.590Z,988.20
2017-12-28T10:55:02.503Z,988.22
2017-12-28T10:56:02.418Z,988.25
2017-12-28T10:57:02.314Z,988.26
2017-12-28T10:58:02.225Z,988.34
2017-12-28T10:59:02.140Z,988.24
2017-12-28T11:00:02.056Z,988.21
2017-12-28T11:01:01.959Z,988.16
2017-12-28T11:02:01.865Z,988.22
2017-12-28T11:03:01.766Z,988.25
2017-12-28T11:04:01.685Z,988.25
2017-12-28T11:05:01.589Z,988.23
2017-12-28T11:06:01.499Z,988.22
2017-12-28T11:07:01.410Z,988.25
2017-12-28T11:08:01.319Z,988.26
2017-12-28T11:09:01.243Z,988.37
2017-12-28T11:10:01.133Z,988.34
2017-12-28T11:11:01.044Z,988.34
2017-12-28T11:12:00.962Z,988.36
2017-12-28T11:13:00.862Z,988.40
2017-12-28T11:14:00.773Z,988.42
2017-12-28T11:15:00.683Z,988.46
2017-12-28T11:16:00.597Z,988.44
2017-12-28T11:17:00.501Z,988.45
2017-12-28T11:18:00.407Z,988.41
2017-12-28T11:19:00.332Z,988.44
2017-12-28T11:20:00.234Z,988.45
2017-12-28T11:21:00.139Z,988.48
2017-12-28T11:22:00.043Z,988.44
2017-12-28T11:22:59.958Z,988.48
2017-12-28T11:23:59.872Z,988.52
2017-12-28T11:24:59.799Z,988.47
2017-12-28T11:25:59.682Z,988.44
2017-12-28T11:26:59.596Z,988.42
2017-12-28T11:27:59.544Z,988.47
2017-12-28T11:28:59.413Z,988.50
2017-12-28T11:29:59.321Z,988.47
2017-12-28T11:30:59.229Z,988.56
2017-12-28T11:31:59.193Z,988.54
2017-12-28T11:32:59.054Z,988.49
2017-12-28T11:33:58.959Z,988.52
2017-12-28T11:34:58.868Z,988.55
2017-12-28T11:35:58.778Z,988.48
2017-12-28T11:36:58.699Z,988.47
2017-12-28T11:37:58.599Z,988.53
2017-12-28T11:39:58.475Z,988.51
2017-12-28T11:40:58.362Z,988.51
2017-12-28T11:41:58.243Z,988.46
2017-12-28T11:42:58.156Z,988.50
2017-12-28T11:43:58.089Z,988.52
2017-12-28T11:44:57.971Z,988.54
2017-12-28T11:45:57.882Z,988.48
2017-12-28T11:46:57.792Z,988.53
2017-12-28T11:47:57.700Z,988.60
2017-12-28T11:48:57.608Z,988.56
2017-12-28T11:49:57.516Z,988.58
2017-12-28T11:50:57.419Z,988.54
2017-12-28T11:51:57.330Z,988.58
2017-12-28T11:52:57.241Z,988.65
2017-12-28T11:53:57.150Z,988.54
2017-12-28T11:54:57.101Z,988.59
2017-12-28T11:55:56.975Z,988.68
2017-12-28T11:56:56.880Z,988.64
2017-12-28T11:57:56.815Z,988.66
2017-12-28T11:58:56.709Z,988.65
2017-12-28T11:59:56.622Z,988.65
2017-12-28T12:00:56.523Z,988.65
2017-12-28T12:01:56.436Z,988.69
2017-12-28T12:02:56.335Z,988.67
2017-12-28T12:03:56.248Z,988.70
2017-12-28T12:04:56.165Z,988.70
2017-12-28T12:05:56.071Z,988.71
2017-12-28T12:06:55.974Z,988.71
2017-12-28T12:07:55.884Z,988.70
2017-12-28T12:08:55.791Z,988.71
2017-12-28T12:09:55.698Z,988.72
2017-12-28T12:10:55.665Z,988.75
2017-12-28T12:11:55.521Z,988.70
2017-12-28T12:12:55.441Z,988.73
2017-12-28T12:13:55.337Z,988.77
2017-12-28T12:14:55.252Z,988.82
2017-12-28T12:15:55.168Z,988.76
2017-12-28T12:16:55.076Z,988.80
2017-12-28T12:17:54.984Z,988.81
2017-12-28T12:18:54.891Z,988.82
2017-12-28T12:19:54.797Z,988.89
2017-12-28T12:20:54.706Z,988.91
2017-12-28T12:21:54.613Z,988.90
2017-12-28T12:22:54.533Z,988.88
2017-12-28T12:23:54.434Z,988.85
2017-12-28T12:24:54.343Z,988.92
2017-12-28T12:25:54.263Z,988.94
2017-12-28T12:26:54.197Z,988.92
2017-12-28T12:27:54.083Z,988.94